createdAt,value
2022-09-27T00:01:17.375Z,95183.50
2022-09-27T00:03:44.929Z,95182.31
2022-09-27T00:06:16.092Z,95179.13
2022-09-27T00:08:43.058Z,95175.41
2022-09-27T00:11:40.058Z,95172.84
2022-09-27T00:14:07.648Z,95167.78
2022-09-27T00:16:35.323Z,95164.53
2022-09-27T00:19:03.766Z,95161.03
2022-09-27T00:21:30.865Z,95164.75
2022-09-27T00:23:57.928Z,95165.91
2022-09-27T00:26:24.770Z,95157.16
2022-09-27T00:28:52.326Z,95148.31
2022-09-27T00:31:22.471Z,95154.00
2022-09-27T00:33:51.309Z,95149.31
2022-09-27T00:36:18.315Z,95143.28
2022-09-27T00:38:47.406Z,95132.88
2022-09-27T00:41:18.926Z,95138.34
2022-09-27T00:43:56.416Z,95131.88
2022-09-27T00:46:35.325Z,95125.03
2022-09-27T00:49:16.848Z,95121.31
2022-09-27T00:51:45.044Z,95121.38
2022-09-27T00:54:13.090Z,95111.66
2022-09-27T00:56:42.246Z,95111.22
2022-09-27T00:59:20.683Z,95110.94
2022-09-27T01:01:49.164Z,95096.63
2022-09-27T01:04:18.363Z,95102.03
2022-09-27T01:06:44.854Z,95099.09
2022-09-27T01:09:11.947Z,95091.22
2022-09-27T01:11:45.060Z,95093.91
2022-09-27T01:14:29.076Z,95096.69
2022-09-27T01:16:55.496Z,95088.38
2022-09-27T01:19:21.890Z,95088.38
2022-09-27T01:21:58.496Z,95083.34
2022-09-27T01:24:37.424Z,95079.75
2022-09-27T01:27:19.232Z,95082.31
2022-09-27T01:30:00.262Z,95081.31
2022-09-27T01:32:37.180Z,95069.19
2022-09-27T01:35:07.690Z,95076.47
2022-09-27T01:37:57.191Z,95064.78
2022-09-27T01:40:28.726Z,95056.56
2022-09-27T01:43:14.471Z,95054.56
2022-09-27T01:45:46.555Z,95056.03
2022-09-27T01:48:22.038Z,95048.75
2022-09-27T01:51:08.460Z,95044.81
2022-09-27T01:53:39.646Z,95052.28
2022-09-27T01:56:11.011Z,95042.13
2022-09-27T01:58:40.424Z,95048.09
2022-09-27T02:01:09.291Z,95051.50
2022-09-27T02:03:38.114Z,95043.19
2022-09-27T02:06:12.808Z,95038.66
2022-09-27T02:08:49.358Z,95037.13
2022-09-27T02:11:15.927Z,95038.53
2022-09-27T02:13:42.396Z,95029.13
2022-09-27T02:16:10.210Z,95024.38
2022-09-27T02:18:47.775Z,95024.88
2022-09-27T02:21:19.850Z,95019.59
2022-09-27T02:23:50.187Z,95012.69
2022-09-27T02:26:19.538Z,95017.72
2022-09-27T02:28:49.998Z,95010.19
2022-09-27T02:31:16.705Z,95011.25
2022-09-27T02:34:01.463Z,95011.16
2022-09-27T02:36:28.382Z,95013.94
2022-09-27T02:38:55.120Z,95011.22
2022-09-27T02:41:22.123Z,95010.59
2022-09-27T02:43:55.161Z,95010.06
2022-09-27T02:46:26.157Z,95009.84
2022-09-27T02:49:11.524Z,95007.78
2022-09-27T02:51:43.718Z,95004.50
2022-09-27T02:54:10.117Z,95002.78
2022-09-27T02:56:36.531Z,95006.94
2022-09-27T02:59:22.238Z,95002.44
2022-09-27T03:02:08.674Z,95003.34
2022-09-27T03:04:54.065Z,95001.09
2022-09-27T03:07:21.270Z,94994.72
2022-09-27T03:09:49.766Z,94993.88
2022-09-27T03:12:22.539Z,94994.41
2022-09-27T03:14:49.463Z,94989.94
2022-09-27T03:17:16.011Z,94987.25
2022-09-27T03:19:42.428Z,94996.84
2022-09-27T03:22:09.171Z,94998.28
2022-09-27T03:24:35.583Z,94995.03
2022-09-27T03:27:02.448Z,94993.19
2022-09-27T03:29:29.065Z,94988.75
2022-09-27T03:31:55.505Z,94987.88
2022-09-27T03:34:22.337Z,94986.00
2022-09-27T03:36:48.797Z,94982.09
2022-09-27T03:39:15.349Z,94979.72
2022-09-27T03:41:41.964Z,94984.84
2022-09-27T03:44:08.401Z,94976.59
2022-09-27T03:46:35.130Z,94988.47
2022-09-27T03:49:01.640Z,94984.22
2022-09-27T03:51:28.062Z,94986.00
2022-09-27T03:53:55.554Z,94976.97
2022-09-27T03:56:22.484Z,94981.13
2022-09-27T03:58:48.903Z,94974.03
2022-09-27T04:01:15.842Z,94970.53
2022-09-27T04:03:42.421Z,94959.69
2022-09-27T04:06:08.912Z,94956.97
2022-09-27T04:08:36.621Z,94954.28
2022-09-27T04:11:03.651Z,94951.13
2022-09-27T04:13:35.952Z,94950.63
2022-09-27T04:16:03.091Z,94942.91
2022-09-27T04:18:29.763Z,94945.09
2022-09-27T04:20:56.335Z,94945.88
2022-09-27T04:23:27.641Z,94953.91
2022-09-27T04:25:57.262Z,94947.94
2022-09-27T04:28:23.725Z,94940.69
2022-09-27T04:30:50.790Z,94937.88
2022-09-27T04:33:17.332Z,94938.97
2022-09-27T04:36:02.801Z,94942.91
2022-09-27T04:38:30.228Z,94938.06
2022-09-27T04:40:56.728Z,94940.69
2022-09-27T04:43:23.205Z,94940.63
2022-09-27T04:45:49.774Z,94931.84
2022-09-27T04:48:16.411Z,94941.44
2022-09-27T04:50:42.985Z,94942.09
2022-09-27T04:53:13.805Z,94945.25
2022-09-27T04:55:40.319Z,94946.00
2022-09-27T04:58:06.852Z,94949.88
2022-09-27T05:00:33.262Z,94949.63
2022-09-27T05:02:59.865Z,94951.00
2022-09-27T05:05:26.314Z,94946.13
2022-09-27T05:07:53.814Z,94951.19
2022-09-27T05:10:20.333Z,94944.38
2022-09-27T05:12:47.458Z,94947.75
2022-09-27T05:15:13.877Z,94958.16
2022-09-27T05:17:40.416Z,94957.47
2022-09-27T05:20:07.091Z,94955.00
2022-09-27T05:22:33.668Z,94961.13
2022-09-27T05:25:00.206Z,94965.13
2022-09-27T05:27:26.654Z,94970.28
2022-09-27T05:29:54.290Z,94972.69
2022-09-27T05:32:21.472Z,94966.63
2022-09-27T05:34:49.314Z,94970.19
2022-09-27T05:37:15.841Z,94960.56
2022-09-27T05:39:42.267Z,94960.38
2022-09-27T05:42:12.333Z,94963.34
2022-09-27T05:44:39.527Z,94962.44
2022-09-27T05:47:06.055Z,94960.94
2022-09-27T05:49:33.133Z,94952.97
2022-09-27T05:52:00.083Z,94957.97
2022-09-27T05:54:27.807Z,94962.81
2022-09-27T05:56:55.326Z,94973.84
2022-09-27T05:59:21.755Z,94967.84
2022-09-27T06:01:48.478Z,94976.03
2022-09-27T06:04:15.162Z,94987.16
2022-09-27T06:06:41.757Z,94986.75
2022-09-27T06:09:12.125Z,94985.91
2022-09-27T06:11:41.813Z,94990.06
2022-09-27T06:14:11.845Z,95002.34
2022-09-27T06:16:39.500Z,95012.31
2022-09-27T06:19:05.993Z,94998.53
2022-09-27T06:21:32.434Z,95008.75
2022-09-27T06:23:59.776Z,95016.78
2022-09-27T06:26:29.137Z,95010.38
2022-09-27T06:28:55.949Z,95017.28
2022-09-27T06:31:22.660Z,95026.72
2022-09-27T06:33:49.773Z,95029.97
2022-09-27T06:38:46.256Z,95027.19
2022-09-27T06:41:15.349Z,95030.50
2022-09-27T06:43:42.296Z,95035.56
2022-09-27T06:46:08.832Z,95044.41
2022-09-27T06:48:37.532Z,95047.28
2022-09-27T06:51:04.382Z,95053.97
2022-09-27T06:53:30.863Z,95048.22
2022-09-27T06:56:01.392Z,95047.22
2022-09-27T06:58:47.156Z,95046.91
2022-09-27T07:01:14.098Z,95048.38
2022-09-27T07:03:43.193Z,95056.06
2022-09-27T07:06:18.077Z,95050.75
2022-09-27T07:08:44.553Z,95052.06
2022-09-27T07:11:11.071Z,95059.56
2022-09-27T07:13:42.896Z,95066.38
2022-09-27T07:16:13.478Z,95057.94
2022-09-27T07:18:42.831Z,95066.78
2022-09-27T07:21:09.303Z,95064.88
2022-09-27T07:23:37.143Z,95071.13
2022-09-27T07:26:04.804Z,95071.22
2022-09-27T07:28:32.307Z,95069.97
2022-09-27T07:30:58.833Z,95068.44
2022-09-27T07:33:26.481Z,95074.66
2022-09-27T07:35:53.107Z,95077.56
2022-09-27T07:38:25.787Z,95073.78
2022-09-27T07:40:52.718Z,95079.47
2022-09-27T07:43:19.674Z,95074.09
2022-09-27T07:45:46.642Z,95079.75
2022-09-27T07:48:13.986Z,95075.91
2022-09-27T07:50:40.477Z,95078.56
2022-09-27T07:53:07.020Z,95084.59
2022-09-27T07:55:33.521Z,95087.78
2022-09-27T07:58:08.887Z,95086.28
2022-09-27T08:00:35.571Z,95094.63
2022-09-27T08:03:08.945Z,95096.16
2022-09-27T08:05:47.234Z,95100.69
2022-09-27T08:08:14.571Z,95105.78
2022-09-27T08:10:44.579Z,95109.97
2022-09-27T08:13:11.470Z,95115.84
2022-09-27T08:15:39.194Z,95110.06
2022-09-27T08:18:06.170Z,95113.88
2022-09-27T08:20:32.582Z,95118.94
2022-09-27T08:22:59.106Z,95117.41
2022-09-27T08:25:25.542Z,95119.59
2022-09-27T08:27:56.794Z,95121.84
2022-09-27T08:30:23.514Z,95132.47
2022-09-27T08:32:50.195Z,95140.84
2022-09-27T08:35:16.618Z,95140.94
2022-09-27T08:37:43.159Z,95145.31
2022-09-27T08:40:11.072Z,95153.03
2022-09-27T08:42:48.424Z,95154.34
2022-09-27T08:45:14.893Z,95161.00
2022-09-27T08:47:50.390Z,95167.03
2022-09-27T08:50:30.853Z,95171.47
2022-09-27T08:53:00.244Z,95179.22
2022-09-27T08:55:33.677Z,95181.28
2022-09-27T08:58:00.502Z,95188.97
2022-09-27T09:00:28.751Z,95198.38
2022-09-27T09:02:56.022Z,95201.47
2022-09-27T09:05:29.361Z,95201.09
2022-09-27T09:08:03.017Z,95205.94
2022-09-27T09:11:11.498Z,95205.19
2022-09-27T09:13:46.825Z,95214.69
2022-09-27T09:16:33.650Z,95212.34
2022-09-27T09:19:18.893Z,95211.97
2022-09-27T09:21:54.167Z,95210.66
2022-09-27T09:24:39.410Z,95219.75
2022-09-27T09:27:07.855Z,95220.81
2022-09-27T09:29:54.883Z,95224.75
2022-09-27T09:32:24.266Z,95226.16
2022-09-27T09:34:57.818Z,95209.38
2022-09-27T09:37:33.070Z,95217.88
2022-09-27T09:40:14.282Z,95218.03
2022-09-27T09:42:46.218Z,95215.72
2022-09-27T09:45:18.568Z,95222.13
2022-09-27T09:48:07.540Z,95218.69
2022-09-27T09:50:42.390Z,95214.59
2022-09-27T09:53:16.587Z,95217.72
2022-09-27T09:55:46.244Z,95209.88
2022-09-27T09:58:28.598Z,95219.13
2022-09-27T10:00:59.543Z,95217.25
2022-09-27T10:03:27.061Z,95218.22
2022-09-27T10:05:53.620Z,95210.13
2022-09-27T10:08:22.144Z,95217.44
2022-09-27T10:10:49.128Z,95207.16
2022-09-27T10:13:17.174Z,95204.53
2022-09-27T10:15:47.506Z,95209.91
2022-09-27T10:18:16.433Z,95211.50
2022-09-27T10:20:47.118Z,95216.19
2022-09-27T10:23:15.676Z,95216.22
2022-09-27T10:25:48.811Z,95212.41
2022-09-27T10:28:27.527Z,95213.00
2022-09-27T10:30:58.302Z,95218.75
2022-09-27T10:33:24.989Z,95224.38
2022-09-27T10:35:51.581Z,95236.56
2022-09-27T10:38:25.715Z,95224.94
2022-09-27T10:40:53.378Z,95236.72
2022-09-27T10:43:33.139Z,95236.94
2022-09-27T10:46:02.514Z,95233.97
2022-09-27T10:48:46.405Z,95229.38
2022-09-27T10:51:23.839Z,95229.03
2022-09-27T10:53:50.617Z,95222.03
2022-09-27T10:56:28.509Z,95220.06
2022-09-27T10:58:56.109Z,95223.72
2022-09-27T11:01:22.880Z,95226.16
2022-09-27T11:03:51.057Z,95224.59
2022-09-27T11:06:23.451Z,95221.00
2022-09-27T11:08:53.907Z,95222.03
2022-09-27T11:11:27.466Z,95221.00
2022-09-27T11:14:00.222Z,95228.94
2022-09-27T11:16:33.000Z,95220.13
2022-09-27T11:19:00.469Z,95215.19
2022-09-27T11:21:27.284Z,95213.03
2022-09-27T11:24:08.259Z,95216.38
2022-09-27T11:26:42.075Z,95220.38
2022-09-27T11:29:21.128Z,95215.09
2022-09-27T11:31:47.681Z,95217.00
2022-09-27T11:34:28.765Z,95217.88
2022-09-27T11:37:15.523Z,95214.16
2022-09-27T11:39:53.335Z,95201.78
2022-09-27T11:42:38.043Z,95215.34
2022-09-27T11:48:27.235Z,95218.66
2022-09-27T11:50:53.905Z,95225.28
2022-09-27T11:53:29.162Z,95211.72
2022-09-27T11:55:58.751Z,95227.03
2022-09-27T11:58:27.620Z,95244.63
2022-09-27T12:01:14.494Z,95246.72
2022-09-27T12:03:49.604Z,95254.66
2022-09-27T12:06:25.223Z,95251.03
2022-09-27T12:09:12.704Z,95253.94
2022-09-27T12:11:39.156Z,95252.03
2022-09-27T12:14:32.116Z,95256.22
2022-09-27T12:16:59.069Z,95260.63
2022-09-27T12:19:35.971Z,95246.31
2022-09-27T12:22:04.917Z,95252.13
2022-09-27T12:24:32.355Z,95247.53
2022-09-27T12:27:01.911Z,95240.88
2022-09-27T12:29:34.405Z,95249.03
2022-09-27T12:32:08.135Z,95242.09
2022-09-27T12:34:46.146Z,95240.34
2022-09-27T12:37:14.002Z,95237.66
2022-09-27T12:39:42.832Z,95236.19
2022-09-27T12:42:36.182Z,95242.66
2022-09-27T12:45:18.303Z,95232.34
2022-09-27T12:47:56.243Z,95239.59
2022-09-27T12:50:35.221Z,95245.03
2022-09-27T12:53:05.296Z,95250.16
2022-09-27T12:55:40.700Z,95249.69
2022-09-27T12:58:07.810Z,95256.84
2022-09-27T13:00:43.607Z,95261.31
2022-09-27T13:03:17.242Z,95254.69
2022-09-27T13:05:56.928Z,95247.94
2022-09-27T13:08:53.739Z,95254.44
2022-09-27T13:11:27.955Z,95254.44
2022-09-27T13:13:56.046Z,95256.88
2022-09-27T13:16:22.978Z,95251.47
2022-09-27T13:18:53.151Z,95247.63
2022-09-27T13:21:38.178Z,95254.56
2022-09-27T13:24:24.715Z,95257.16
2022-09-27T13:26:51.271Z,95259.63
2022-09-27T13:29:22.606Z,95263.50
2022-09-27T13:31:55.196Z,95259.41
2022-09-27T13:34:40.816Z,95254.44
2022-09-27T13:37:36.926Z,95265.19
2022-09-27T13:40:15.922Z,95261.72
2022-09-27T13:42:53.643Z,95256.63
2022-09-27T13:45:27.224Z,95256.78
2022-09-27T13:47:59.344Z,95247.97
2022-09-27T13:50:49.367Z,95254.16
2022-09-27T13:53:22.147Z,95245.25
2022-09-27T13:55:51.780Z,95254.03
2022-09-27T13:58:34.132Z,95255.75
2022-09-27T14:01:03.523Z,95265.66
2022-09-27T14:03:38.032Z,95265.94
2022-09-27T14:06:08.901Z,95268.19
2022-09-27T14:08:56.946Z,95258.47
2022-09-27T14:11:26.681Z,95263.69
2022-09-27T14:13:54.073Z,95258.22
2022-09-27T14:16:22.151Z,95269.75
2022-09-27T14:18:53.982Z,95269.47
2022-09-27T14:21:29.858Z,95271.75
2022-09-27T14:24:15.233Z,95277.00
2022-09-27T14:26:43.027Z,95281.03
2022-09-27T14:29:21.973Z,95284.44
2022-09-27T14:32:03.413Z,95297.22
2022-09-27T14:34:29.950Z,95296.19
2022-09-27T14:37:16.835Z,95296.69
2022-09-27T14:39:43.350Z,95294.75
2022-09-27T14:42:28.611Z,95290.94
2022-09-27T14:45:01.800Z,95285.84
2022-09-27T14:47:29.469Z,95290.84
2022-09-27T14:50:05.699Z,95289.69
2022-09-27T14:52:35.062Z,95294.09
2022-09-27T14:55:28.592Z,95299.06
2022-09-27T14:57:58.103Z,95302.72
2022-09-27T15:00:26.321Z,95299.06
2022-09-27T15:02:56.667Z,95295.34
2022-09-27T15:05:24.972Z,95286.34
2022-09-27T15:07:52.495Z,95300.06
2022-09-27T15:10:20.791Z,95293.50
2022-09-27T15:12:50.211Z,95291.59
2022-09-27T15:15:19.858Z,95287.09
2022-09-27T15:17:48.143Z,95279.50
2022-09-27T15:20:34.442Z,95284.41
2022-09-27T15:23:02.465Z,95283.53
2022-09-27T15:25:38.286Z,95286.78
2022-09-27T15:28:06.277Z,95276.81
2022-09-27T15:30:40.205Z,95276.81
2022-09-27T15:33:26.991Z,95273.78
2022-09-27T15:35:55.635Z,95273.41
2022-09-27T15:38:22.566Z,95276.50
2022-09-27T15:40:49.753Z,95272.78
2022-09-27T15:43:40.443Z,95273.97
2022-09-27T15:46:22.568Z,95272.06
2022-09-27T15:49:08.032Z,95276.41
2022-09-27T15:51:42.053Z,95270.44
2022-09-27T15:54:10.809Z,95268.09
2022-09-27T15:56:38.894Z,95279.06
2022-09-27T15:59:07.569Z,95282.63
2022-09-27T16:01:35.078Z,95280.88
2022-09-27T16:04:01.952Z,95291.50
2022-09-27T16:06:28.899Z,95293.19
2022-09-27T16:08:55.662Z,95287.63
2022-09-27T16:11:22.256Z,95285.59
2022-09-27T16:13:50.346Z,95302.44
2022-09-27T16:16:19.404Z,95291.53
2022-09-27T16:18:48.870Z,95300.38
2022-09-27T16:21:15.439Z,95306.88
2022-09-27T16:23:42.185Z,95302.63
2022-09-27T16:26:08.792Z,95302.81
2022-09-27T16:28:35.369Z,95306.41
2022-09-27T16:31:06.034Z,95300.66
2022-09-27T16:33:33.166Z,95302.63
2022-09-27T16:36:01.810Z,95301.41
2022-09-27T16:38:30.343Z,95300.88
2022-09-27T16:41:01.727Z,95309.56
2022-09-27T16:43:28.553Z,95310.00
2022-09-27T16:45:57.124Z,95317.94
2022-09-27T16:48:23.680Z,95314.94
2022-09-27T16:51:08.951Z,95323.59
2022-09-27T16:53:35.488Z,95327.00
2022-09-27T16:56:02.394Z,95322.34
2022-09-27T16:58:29.310Z,95327.63
2022-09-27T17:00:59.318Z,95331.44
2022-09-27T17:03:25.980Z,95332.09
2022-09-27T17:05:52.434Z,95333.25
2022-09-27T17:08:19.867Z,95328.06
2022-09-27T17:10:46.836Z,95334.34
2022-09-27T17:13:13.582Z,95324.84
2022-09-27T17:15:42.063Z,95334.91
2022-09-27T17:18:08.625Z,95335.13
2022-09-27T17:20:35.083Z,95342.22
2022-09-27T17:23:01.566Z,95337.75
2022-09-27T17:25:28.461Z,95334.75
2022-09-27T17:27:55.031Z,95331.91
2022-09-27T17:30:21.489Z,95328.66
2022-09-27T17:32:48.910Z,95326.06
2022-09-27T17:35:16.676Z,95330.06
2022-09-27T17:37:43.106Z,95327.88
2022-09-27T17:40:10.647Z,95332.13
2022-09-27T17:42:37.327Z,95333.97
2022-09-27T17:45:04.295Z,95329.13
2022-09-27T17:47:49.212Z,95323.88
2022-09-27T17:50:24.595Z,95325.09
2022-09-27T17:52:55.106Z,95323.47
2022-09-27T17:55:21.831Z,95318.81
2022-09-27T17:57:49.079Z,95318.63
2022-09-27T18:00:16.083Z,95323.44
2022-09-27T18:02:42.941Z,95322.22
2022-09-27T18:05:09.930Z,95326.69
2022-09-27T18:07:36.845Z,95325.28
2022-09-27T18:10:04.072Z,95333.16
2022-09-27T18:12:34.809Z,95330.34
2022-09-27T18:15:02.059Z,95331.75
2022-09-27T18:17:28.867Z,95340.19
2022-09-27T18:19:57.099Z,95340.38
2022-09-27T18:22:27.207Z,95342.63
2022-09-27T18:24:53.687Z,95342.03
2022-09-27T18:27:20.438Z,95350.09
2022-09-27T18:29:47.323Z,95343.81
2022-09-27T18:32:13.812Z,95339.41
2022-09-27T18:34:40.416Z,95343.19
2022-09-27T18:37:06.965Z,95344.22
2022-09-27T18:39:33.539Z,95345.84
2022-09-27T18:41:59.983Z,95345.03
2022-09-27T18:44:26.469Z,95343.63
2022-09-27T18:46:53.026Z,95347.06
2022-09-27T18:49:23.512Z,95350.28
2022-09-27T18:51:52.823Z,95339.59
2022-09-27T18:54:20.860Z,95340.63
2022-09-27T18:56:48.728Z,95341.81
2022-09-27T18:59:17.360Z,95327.50
2022-09-27T19:01:47.318Z,95338.97
2022-09-27T19:04:15.303Z,95340.41
2022-09-27T19:06:42.263Z,95345.84
2022-09-27T19:09:10.874Z,95344.84
2022-09-27T19:11:37.406Z,95343.81
2022-09-27T19:14:06.233Z,95351.09
2022-09-27T19:16:32.889Z,95351.88
2022-09-27T19:18:59.513Z,95350.25
2022-09-27T19:21:27.728Z,95361.78
2022-09-27T19:23:54.665Z,95351.88
2022-09-27T19:26:22.794Z,95355.50
2022-09-27T19:28:49.395Z,95358.94
2022-09-27T19:31:20.456Z,95362.34
2022-09-27T19:33:47.361Z,95363.50
2022-09-27T19:36:15.411Z,95360.69
2022-09-27T19:38:49.382Z,95362.09
2022-09-27T19:41:18.234Z,95364.34
2022-09-27T19:43:50.402Z,95363.91
2022-09-27T19:46:17.413Z,95362.22
2022-09-27T19:48:45.110Z,95370.72
2022-09-27T19:51:15.762Z,95365.34
2022-09-27T19:53:42.525Z,95351.81
2022-09-27T19:56:09.957Z,95363.84
2022-09-27T19:58:37.371Z,95355.75
2022-09-27T20:01:06.425Z,95361.19
2022-09-27T20:03:33.427Z,95363.63
2022-09-27T20:06:00.420Z,95363.28
2022-09-27T20:08:27.837Z,95373.50
2022-09-27T20:11:02.436Z,95375.41
2022-09-27T20:13:32.493Z,95377.66
2022-09-27T20:16:03.553Z,95377.94
2022-09-27T20:18:30.063Z,95378.31
2022-09-27T20:21:00.849Z,95382.03
2022-09-27T20:23:28.225Z,95380.38
2022-09-27T20:26:08.306Z,95383.88
2022-09-27T20:28:35.335Z,95386.06
2022-09-27T20:31:03.005Z,95383.91
2022-09-27T20:33:42.067Z,95384.16
2022-09-27T20:36:09.491Z,95388.38
2022-09-27T20:38:36.075Z,95388.78
2022-09-27T20:41:02.629Z,95379.97
2022-09-27T20:43:31.207Z,95374.78
2022-09-27T20:46:01.812Z,95365.88
2022-09-27T20:48:28.418Z,95378.22
2022-09-27T20:50:56.645Z,95378.66
2022-09-27T20:53:23.600Z,95369.41
2022-09-27T20:55:51.753Z,95367.88
2022-09-27T20:58:18.287Z,95368.09
2022-09-27T21:00:45.533Z,95361.81
2022-09-27T21:03:12.052Z,95364.72
2022-09-27T21:05:38.868Z,95364.09
2022-09-27T21:08:05.382Z,95362.16
2022-09-27T21:10:32.636Z,95364.66
2022-09-27T21:12:59.176Z,95359.59
2022-09-27T21:15:27.705Z,95358.34
2022-09-27T21:17:56.715Z,95356.97
2022-09-27T21:20:23.179Z,95365.53
2022-09-27T21:22:49.626Z,95356.25
2022-09-27T21:25:16.051Z,95361.28
2022-09-27T21:27:42.500Z,95362.94
2022-09-27T21:30:09.274Z,95369.34
2022-09-27T21:32:38.284Z,95361.50
2022-09-27T21:35:05.294Z,95359.69
2022-09-27T21:37:31.779Z,95365.84
2022-09-27T21:39:58.501Z,95364.09
2022-09-27T21:42:25.034Z,95372.72
2022-09-27T21:44:51.527Z,95363.03
2022-09-27T21:47:18.062Z,95368.63
2022-09-27T21:49:44.609Z,95366.44
2022-09-27T21:52:11.105Z,95362.91
2022-09-27T21:54:37.518Z,95371.75
2022-09-27T21:57:07.678Z,95371.53
2022-09-27T21:59:34.081Z,95363.84
2022-09-27T22:02:00.587Z,95366.03
2022-09-27T22:04:27.662Z,95370.78
2022-09-27T22:06:54.598Z,95362.97
2022-09-27T22:09:21.123Z,95363.13
2022-09-27T22:11:47.970Z,95363.03
2022-09-27T22:14:15.619Z,95358.59
2022-09-27T22:16:42.422Z,95348.94
2022-09-27T22:19:10.531Z,95349.31
2022-09-27T22:21:37.713Z,95350.84
2022-09-27T22:24:08.053Z,95355.44
2022-09-27T22:26:36.583Z,95349.25
2022-09-27T22:29:04.933Z,95353.38
2022-09-27T22:31:31.456Z,95356.03
2022-09-27T22:34:02.237Z,95363.47
2022-09-27T22:36:28.787Z,95354.47
2022-09-27T22:38:55.759Z,95356.91
2022-09-27T22:41:24.402Z,95352.97
2022-09-27T22:43:53.597Z,95342.28
2022-09-27T22:46:23.629Z,95344.28
2022-09-27T22:48:50.124Z,95339.69
2022-09-27T22:51:17.303Z,95334.25
2022-09-27T22:53:44.408Z,95335.69
2022-09-27T22:56:14.025Z,95336.78
2022-09-27T22:58:44.071Z,95339.06
2022-09-27T23:01:16.117Z,95328.00
2022-09-27T23:03:43.469Z,95330.44
2022-09-27T23:06:10.202Z,95339.53
2022-09-27T23:08:37.153Z,95332.75
2022-09-27T23:11:10.038Z,95333.44
2022-09-27T23:13:38.254Z,95330.44
2022-09-27T23:16:06.071Z,95332.84
2022-09-27T23:18:33.337Z,95348.72
2022-09-27T23:21:03.234Z,95342.69
2022-09-27T23:23:36.938Z,95325.47
2022-09-27T23:26:05.090Z,95336.78
2022-09-27T23:28:32.171Z,95339.47
2022-09-27T23:31:09.154Z,95343.22
2022-09-27T23:33:38.870Z,95340.34
2022-09-27T23:36:07.628Z,95328.72
2022-09-27T23:38:34.131Z,95329.53
2022-09-27T23:41:00.997Z,95342.69
2022-09-27T23:43:27.531Z,95340.69
2022-09-27T23:45:57.429Z,95338.69
2022-09-27T23:48:26.673Z,95338.59
2022-09-27T23:51:01.680Z,95341.50
2022-09-27T23:53:28.439Z,95334.38
2022-09-27T23:56:06.204Z,95342.19
2022-09-27T23:58:36.957Z,95332.91
